sensor_id;sensor_type;location;lat;lon;timestamp;P1;durP1;ratioP1;P2;durP2;ratioP2
9974;SDS011;5028;50.974;4.968;2023-09-19T00:00:47;11.37;;;2.67;;
9974;SDS011;5028;50.974;4.968;2023-09-19T00:03:16;10.73;;;2.93;;
9974;SDS011;5028;50.974;4.968;2023-09-19T00:05:45;7.63;;;2.70;;
9974;SDS011;5028;50.974;4.968;2023-09-19T00:08:14;9.73;;;2.67;;
9974;SDS011;5028;50.974;4.968;2023-09-19T00:10:43;10.83;;;2.70;;
9974;SDS011;5028;50.974;4.968;2023-09-19T00:13:13;7.30;;;2.43;;
9974;SDS011;5028;50.974;4.968;2023-09-19T00:15:43;6.23;;;2.40;;
9974;SDS011;5028;50.974;4.968;2023-09-19T00:18:16;8.50;;;2.33;;
9974;SDS011;5028;50.974;4.968;2023-09-19T00:20:48;7.60;;;2.53;;
9974;SDS011;5028;50.974;4.968;2023-09-19T00:23:19;8.63;;;2.40;;
9974;SDS011;5028;50.974;4.968;2023-09-19T00:25:48;9.33;;;2.67;;
9974;SDS011;5028;50.974;4.968;2023-09-19T00:28:19;7.87;;;2.40;;
9974;SDS011;5028;50.974;4.968;2023-09-19T00:30:48;7.50;;;2.60;;
9974;SDS011;5028;50.974;4.968;2023-09-19T00:33:18;9.17;;;2.90;;
9974;SDS011;5028;50.974;4.968;2023-09-19T00:35:47;7.00;;;2.40;;
9974;SDS011;5028;50.974;4.968;2023-09-19T00:38:16;11.97;;;2.70;;
9974;SDS011;5028;50.974;4.968;2023-09-19T00:40:47;8.60;;;2.40;;
9974;SDS011;5028;50.974;4.968;2023-09-19T00:43:19;8.90;;;2.67;;
9974;SDS011;5028;50.974;4.968;2023-09-19T00:45:51;9.83;;;2.67;;
9974;SDS011;5028;50.974;4.968;2023-09-19T00:48:21;8.90;;;2.50;;
9974;SDS011;5028;50.974;4.968;2023-09-19T00:50:51;5.33;;;1.77;;
9974;SDS011;5028;50.974;4.968;2023-09-19T00:53:21;12.57;;;2.70;;
9974;SDS011;5028;50.974;4.968;2023-09-19T00:55:52;8.17;;;2.33;;
9974;SDS011;5028;50.974;4.968;2023-09-19T00:58:24;8.40;;;2.37;;
9974;SDS011;5028;50.974;4.968;2023-09-19T01:00:59;5.57;;;2.10;;
9974;SDS011;5028;50.974;4.968;2023-09-19T01:03:28;8.63;;;2.33;;
9974;SDS011;5028;50.974;4.968;2023-09-19T01:05:57;6.00;;;2.13;;
9974;SDS011;5028;50.974;4.968;2023-09-19T01:08:29;9.50;;;2.73;;
9974;SDS011;5028;50.974;4.968;2023-09-19T01:10:59;9.13;;;2.47;;
9974;SDS011;5028;50.974;4.968;2023-09-19T01:13:45;9.13;;;2.60;;
9974;SDS011;5028;50.974;4.968;2023-09-19T01:16:19;7.27;;;2.60;;
9974;SDS011;5028;50.974;4.968;2023-09-19T01:18:55;7.90;;;2.67;;
9974;SDS011;5028;50.974;4.968;2023-09-19T01:21:37;7.30;;;2.60;;
9974;SDS011;5028;50.974;4.968;2023-09-19T01:27:17;7.53;;;2.10;;
9974;SDS011;5028;50.974;4.968;2023-09-19T01:30:08;7.83;;;2.30;;
9974;SDS011;5028;50.974;4.968;2023-09-19T01:32:38;9.80;;;2.50;;
9974;SDS011;5028;50.974;4.968;2023-09-19T01:35:08;7.13;;;2.40;;
9974;SDS011;5028;50.974;4.968;2023-09-19T01:37:39;9.73;;;2.97;;
9974;SDS011;5028;50.974;4.968;2023-09-19T01:40:11;9.97;;;2.87;;
9974;SDS011;5028;50.974;4.968;2023-09-19T01:42:44;8.57;;;2.40;;
9974;SDS011;5028;50.974;4.968;2023-09-19T01:45:21;9.33;;;3.03;;
9974;SDS011;5028;50.974;4.968;2023-09-19T01:47:55;9.93;;;2.73;;
9974;SDS011;5028;50.974;4.968;2023-09-19T01:50:29;7.17;;;2.77;;
9974;SDS011;5028;50.974;4.968;2023-09-19T01:53:04;9.33;;;2.53;;
9974;SDS011;5028;50.974;4.968;2023-09-19T01:55:36;7.10;;;2.53;;
9974;SDS011;5028;50.974;4.968;2023-09-19T01:58:13;8.73;;;2.60;;
9974;SDS011;5028;50.974;4.968;2023-09-19T02:00:48;9.30;;;2.40;;
9974;SDS011;5028;50.974;4.968;2023-09-19T02:03:18;7.17;;;2.20;;
9974;SDS011;5028;50.974;4.968;2023-09-19T02:05:50;7.80;;;2.67;;
9974;SDS011;5028;50.974;4.968;2023-09-19T02:08:20;8.13;;;2.77;;
9974;SDS011;5028;50.974;4.968;2023-09-19T02:10:51;8.93;;;2.97;;
9974;SDS011;5028;50.974;4.968;2023-09-19T02:13:20;7.40;;;2.40;;
9974;SDS011;5028;50.974;4.968;2023-09-19T02:15:53;9.07;;;2.27;;
9974;SDS011;5028;50.974;4.968;2023-09-19T02:18:24;7.77;;;2.77;;
9974;SDS011;5028;50.974;4.968;2023-09-19T02:20:53;8.23;;;2.70;;
9974;SDS011;5028;50.974;4.968;2023-09-19T02:23:22;7.43;;;2.53;;
9974;SDS011;5028;50.974;4.968;2023-09-19T02:25:52;10.60;;;2.53;;
9974;SDS011;5028;50.974;4.968;2023-09-19T02:28:22;9.20;;;2.70;;
9974;SDS011;5028;50.974;4.968;2023-09-19T02:30:50;12.10;;;2.53;;
9974;SDS011;5028;50.974;4.968;2023-09-19T02:33:21;6.87;;;2.43;;
9974;SDS011;5028;50.974;4.968;2023-09-19T02:35:54;8.97;;;2.40;;
9974;SDS011;5028;50.974;4.968;2023-09-19T02:38:24;8.43;;;2.50;;
9974;SDS011;5028;50.974;4.968;2023-09-19T02:40:53;8.87;;;2.63;;
9974;SDS011;5028;50.974;4.968;2023-09-19T02:43:22;7.90;;;2.50;;
9974;SDS011;5028;50.974;4.968;2023-09-19T02:45:53;8.73;;;2.67;;
9974;SDS011;5028;50.974;4.968;2023-09-19T02:48:24;8.17;;;2.90;;
9974;SDS011;5028;50.974;4.968;2023-09-19T02:50:55;13.33;;;2.90;;
9974;SDS011;5028;50.974;4.968;2023-09-19T02:53:24;6.37;;;2.40;;
9974;SDS011;5028;50.974;4.968;2023-09-19T02:55:54;7.00;;;2.63;;
9974;SDS011;5028;50.974;4.968;2023-09-19T02:58:23;7.70;;;2.80;;
9974;SDS011;5028;50.974;4.968;2023-09-19T03:00:53;9.17;;;2.40;;
9974;SDS011;5028;50.974;4.968;2023-09-19T03:03:22;9.17;;;2.63;;
9974;SDS011;5028;50.974;4.968;2023-09-19T03:05:51;6.97;;;2.63;;
9974;SDS011;5028;50.974;4.968;2023-09-19T03:08:21;8.97;;;2.60;;
9974;SDS011;5028;50.974;4.968;2023-09-19T03:10:49;8.20;;;2.40;;
9974;SDS011;5028;50.974;4.968;2023-09-19T03:13:18;10.67;;;2.80;;
9974;SDS011;5028;50.974;4.968;2023-09-19T03:15:47;8.33;;;2.83;;
9974;SDS011;5028;50.974;4.968;2023-09-19T03:18:18;8.10;;;2.43;;
9974;SDS011;5028;50.974;4.968;2023-09-19T03:20:52;11.03;;;2.97;;
9974;SDS011;5028;50.974;4.968;2023-09-19T03:23:21;7.03;;;2.97;;
9974;SDS011;5028;50.974;4.968;2023-09-19T03:25:50;8.77;;;2.73;;
9974;SDS011;5028;50.974;4.968;2023-09-19T03:28:19;10.13;;;2.80;;
9974;SDS011;5028;50.974;4.968;2023-09-19T03:30:57;7.50;;;2.53;;
9974;SDS011;5028;50.974;4.968;2023-09-19T03:33:30;9.60;;;3.23;;
9974;SDS011;5028;50.974;4.968;2023-09-19T03:35:59;8.17;;;2.67;;
9974;SDS011;5028;50.974;4.968;2023-09-19T03:38:31;8.77;;;2.90;;
9974;SDS011;5028;50.974;4.968;2023-09-19T03:41:02;9.90;;;3.40;;
9974;SDS011;5028;50.974;4.968;2023-09-19T03:43:31;7.33;;;2.53;;
9974;SDS011;5028;50.974;4.968;2023-09-19T03:46:01;8.80;;;2.90;;
9974;SDS011;5028;50.974;4.968;2023-09-19T03:48:32;9.90;;;3.20;;
9974;SDS011;5028;50.974;4.968;2023-09-19T03:51:01;10.57;;;3.00;;
9974;SDS011;5028;50.974;4.968;2023-09-19T03:53:30;7.63;;;2.97;;
9974;SDS011;5028;50.974;4.968;2023-09-19T03:55:59;8.00;;;2.83;;
9974;SDS011;5028;50.974;4.968;2023-09-19T03:58:28;7.63;;;2.60;;
9974;SDS011;5028;50.974;4.968;2023-09-19T04:00:56;6.90;;;2.40;;
9974;SDS011;5028;50.974;4.968;2023-09-19T04:03:26;5.93;;;2.33;;
9974;SDS011;5028;50.974;4.968;2023-09-19T04:06:03;10.70;;;3.20;;
9974;SDS011;5028;50.974;4.968;2023-09-19T04:08:32;7.77;;;2.80;;
9974;SDS011;5028;50.974;4.968;2023-09-19T04:11:01;9.10;;;2.43;;
9974;SDS011;5028;50.974;4.968;2023-09-19T04:13:30;8.43;;;2.53;;
9974;SDS011;5028;50.974;4.968;2023-09-19T04:15:59;8.67;;;2.70;;
9974;SDS011;5028;50.974;4.968;2023-09-19T04:18:27;8.73;;;2.87;;
9974;SDS011;5028;50.974;4.968;2023-09-19T04:20:57;9.63;;;2.80;;
9974;SDS011;5028;50.974;4.968;2023-09-19T04:23:30;8.77;;;2.60;;
9974;SDS011;5028;50.974;4.968;2023-09-19T04:25:58;8.63;;;2.70;;
9974;SDS011;5028;50.974;4.968;2023-09-19T04:28:27;10.77;;;3.43;;
9974;SDS011;5028;50.974;4.968;2023-09-19T04:30:56;10.20;;;2.80;;
9974;SDS011;5028;50.974;4.968;2023-09-19T04:33:25;8.50;;;2.63;;
9974;SDS011;5028;50.974;4.968;2023-09-19T04:35:54;10.23;;;2.83;;
9974;SDS011;5028;50.974;4.968;2023-09-19T04:38:29;8.63;;;2.63;;
9974;SDS011;5028;50.974;4.968;2023-09-19T04:40:57;8.60;;;2.93;;
9974;SDS011;5028;50.974;4.968;2023-09-19T04:43:26;11.07;;;3.20;;
9974;SDS011;5028;50.974;4.968;2023-09-19T04:45:55;14.03;;;2.93;;
9974;SDS011;5028;50.974;4.968;2023-09-19T04:48:29;8.30;;;2.77;;
9974;SDS011;5028;50.974;4.968;2023-09-19T04:50:58;8.80;;;2.60;;
9974;SDS011;5028;50.974;4.968;2023-09-19T04:53:27;7.50;;;2.50;;
9974;SDS011;5028;50.974;4.968;2023-09-19T04:55:57;8.37;;;2.57;;
9974;SDS011;5028;50.974;4.968;2023-09-19T04:58:26;8.47;;;2.87;;
9974;SDS011;5028;50.974;4.968;2023-09-19T05:00:54;9.53;;;2.93;;
9974;SDS011;5028;50.974;4.968;2023-09-19T05:03:23;10.17;;;3.00;;
9974;SDS011;5028;50.974;4.968;2023-09-19T05:05:53;8.77;;;2.37;;
9974;SDS011;5028;50.974;4.968;2023-09-19T05:08:22;8.13;;;2.43;;
9974;SDS011;5028;50.974;4.968;2023-09-19T05:10:50;7.73;;;2.77;;
9974;SDS011;5028;50.974;4.968;2023-09-19T05:13:21;9.53;;;2.93;;
9974;SDS011;5028;50.974;4.968;2023-09-19T05:15:51;9.23;;;3.20;;
9974;SDS011;5028;50.974;4.968;2023-09-19T05:18:20;8.60;;;2.57;;
9974;SDS011;5028;50.974;4.968;2023-09-19T05:20:49;8.60;;;2.60;;
9974;SDS011;5028;50.974;4.968;2023-09-19T05:23:17;7.30;;;2.43;;
9974;SDS011;5028;50.974;4.968;2023-09-19T05:25:47;13.00;;;3.17;;
9974;SDS011;5028;50.974;4.968;2023-09-19T05:28:16;8.70;;;2.93;;
9974;SDS011;5028;50.974;4.968;2023-09-19T05:30:47;6.53;;;2.40;;
9974;SDS011;5028;50.974;4.968;2023-09-19T05:33:16;13.70;;;3.23;;
9974;SDS011;5028;50.974;4.968;2023-09-19T05:35:45;10.27;;;3.00;;
9974;SDS011;5028;50.974;4.968;2023-09-19T05:38:15;10.70;;;2.97;;
9974;SDS011;5028;50.974;4.968;2023-09-19T05:40:45;8.97;;;2.80;;
9974;SDS011;5028;50.974;4.968;2023-09-19T05:43:14;5.93;;;2.60;;
9974;SDS011;5028;50.974;4.968;2023-09-19T05:45:43;8.17;;;2.50;;
9974;SDS011;5028;50.974;4.968;2023-09-19T05:48:13;9.33;;;2.50;;
9974;SDS011;5028;50.974;4.968;2023-09-19T05:50:43;12.33;;;3.23;;
9974;SDS011;5028;50.974;4.968;2023-09-19T05:53:13;7.97;;;2.53;;
9974;SDS011;5028;50.974;4.968;2023-09-19T05:55:42;8.40;;;2.73;;
9974;SDS011;5028;50.974;4.968;2023-09-19T05:58:12;8.43;;;2.53;;
9974;SDS011;5028;50.974;4.968;2023-09-19T06:00:42;8.83;;;2.70;;
9974;SDS011;5028;50.974;4.968;2023-09-19T06:03:11;6.50;;;2.30;;
9974;SDS011;5028;50.974;4.968;2023-09-19T06:05:42;9.03;;;2.67;;
9974;SDS011;5028;50.974;4.968;2023-09-19T06:08:12;10.07;;;2.50;;
9974;SDS011;5028;50.974;4.968;2023-09-19T06:10:41;6.73;;;2.60;;
9974;SDS011;5028;50.974;4.968;2023-09-19T06:13:10;11.97;;;2.90;;
9974;SDS011;5028;50.974;4.968;2023-09-19T06:15:38;6.73;;;2.20;;
9974;SDS011;5028;50.974;4.968;2023-09-19T06:18:10;9.67;;;2.73;;
9974;SDS011;5028;50.974;4.968;2023-09-19T06:20:43;7.23;;;2.60;;
9974;SDS011;5028;50.974;4.968;2023-09-19T06:23:12;10.53;;;2.77;;
9974;SDS011;5028;50.974;4.968;2023-09-19T06:25:40;8.67;;;2.40;;
9974;SDS011;5028;50.974;4.968;2023-09-19T06:28:10;7.37;;;2.40;;
9974;SDS011;5028;50.974;4.968;2023-09-19T06:30:39;9.47;;;2.40;;
9974;SDS011;5028;50.974;4.968;2023-09-19T06:33:08;9.20;;;2.80;;
9974;SDS011;5028;50.974;4.968;2023-09-19T06:35:39;8.27;;;2.67;;
9974;SDS011;5028;50.974;4.968;2023-09-19T06:38:10;8.40;;;2.57;;
9974;SDS011;5028;50.974;4.968;2023-09-19T06:40:39;8.27;;;2.53;;
9974;SDS011;5028;50.974;4.968;2023-09-19T06:43:09;6.77;;;2.50;;
9974;SDS011;5028;50.974;4.968;2023-09-19T06:45:38;8.17;;;2.87;;
9974;SDS011;5028;50.974;4.968;2023-09-19T06:48:07;12.93;;;2.93;;
9974;SDS011;5028;50.974;4.968;2023-09-19T06:50:37;7.97;;;2.20;;
9974;SDS011;5028;50.974;4.968;2023-09-19T06:53:07;9.00;;;2.60;;
9974;SDS011;5028;50.974;4.968;2023-09-19T06:55:38;9.70;;;3.00;;
9974;SDS011;5028;50.974;4.968;2023-09-19T06:58:06;8.93;;;2.33;;
9974;SDS011;5028;50.974;4.968;2023-09-19T07:00:37;8.53;;;2.60;;
9974;SDS011;5028;50.974;4.968;2023-09-19T07:03:06;8.03;;;2.87;;
9974;SDS011;5028;50.974;4.968;2023-09-19T07:05:39;8.03;;;2.40;;
9974;SDS011;5028;50.974;4.968;2023-09-19T07:08:11;7.53;;;2.40;;
9974;SDS011;5028;50.974;4.968;2023-09-19T07:10:39;6.87;;;2.20;;
9974;SDS011;5028;50.974;4.968;2023-09-19T07:13:16;10.37;;;2.80;;
9974;SDS011;5028;50.974;4.968;2023-09-19T07:15:44;7.50;;;2.57;;
9974;SDS011;5028;50.974;4.968;2023-09-19T07:18:17;9.13;;;2.57;;
9974;SDS011;5028;50.974;4.968;2023-09-19T07:20:46;4.30;;;1.90;;
9974;SDS011;5028;50.974;4.968;2023-09-19T07:23:20;8.37;;;2.60;;
9974;SDS011;5028;50.974;4.968;2023-09-19T07:25:50;8.23;;;2.47;;
9974;SDS011;5028;50.974;4.968;2023-09-19T07:28:19;8.20;;;2.40;;
9974;SDS011;5028;50.974;4.968;2023-09-19T07:30:49;9.67;;;2.90;;
9974;SDS011;5028;50.974;4.968;2023-09-19T07:33:19;7.10;;;2.37;;
9974;SDS011;5028;50.974;4.968;2023-09-19T07:35:48;9.20;;;2.50;;
9974;SDS011;5028;50.974;4.968;2023-09-19T07:38:16;8.80;;;2.70;;
9974;SDS011;5028;50.974;4.968;2023-09-19T07:40:49;9.60;;;2.30;;
9974;SDS011;5028;50.974;4.968;2023-09-19T07:43:18;7.87;;;2.53;;
9974;SDS011;5028;50.974;4.968;2023-09-19T07:45:46;7.13;;;2.53;;
9974;SDS011;5028;50.974;4.968;2023-09-19T07:48:16;10.77;;;3.03;;
9974;SDS011;5028;50.974;4.968;2023-09-19T07:50:45;7.80;;;2.40;;
9974;SDS011;5028;50.974;4.968;2023-09-19T07:53:15;6.43;;;1.90;;
9974;SDS011;5028;50.974;4.968;2023-09-19T07:55:44;6.53;;;2.37;;
9974;SDS011;5028;50.974;4.968;2023-09-19T07:58:16;6.77;;;2.33;;
9974;SDS011;5028;50.974;4.968;2023-09-19T08:00:45;8.23;;;2.53;;
9974;SDS011;5028;50.974;4.968;2023-09-19T08:03:16;9.37;;;2.57;;
9974;SDS011;5028;50.974;4.968;2023-09-19T08:05:46;9.60;;;2.63;;
9974;SDS011;5028;50.974;4.968;2023-09-19T08:08:15;10.63;;;2.50;;
9974;SDS011;5028;50.974;4.968;2023-09-19T08:10:44;6.70;;;2.37;;
9974;SDS011;5028;50.974;4.968;2023-09-19T08:13:17;11.83;;;2.83;;
9974;SDS011;5028;50.974;4.968;2023-09-19T08:15:45;7.67;;;2.43;;
9974;SDS011;5028;50.974;4.968;2023-09-19T08:18:15;8.33;;;2.87;;
9974;SDS011;5028;50.974;4.968;2023-09-19T08:20:48;8.23;;;2.50;;
9974;SDS011;5028;50.974;4.968;2023-09-19T08:23:18;8.30;;;2.40;;
9974;SDS011;5028;50.974;4.968;2023-09-19T08:25:47;8.93;;;2.67;;
9974;SDS011;5028;50.974;4.968;2023-09-19T08:28:19;9.37;;;2.40;;
9974;SDS011;5028;50.974;4.968;2023-09-19T08:30:51;7.60;;;2.50;;
9974;SDS011;5028;50.974;4.968;2023-09-19T08:33:21;6.40;;;2.20;;
9974;SDS011;5028;50.974;4.968;2023-09-19T08:35:51;10.20;;;2.90;;
9974;SDS011;5028;50.974;4.968;2023-09-19T08:38:23;8.83;;;2.43;;
9974;SDS011;5028;50.974;4.968;2023-09-19T08:40:57;11.20;;;2.60;;
9974;SDS011;5028;50.974;4.968;2023-09-19T08:43:30;7.70;;;2.43;;
9974;SDS011;5028;50.974;4.968;2023-09-19T08:46:03;11.53;;;2.37;;
9974;SDS011;5028;50.974;4.968;2023-09-19T08:48:39;11.50;;;2.50;;
9974;SDS011;5028;50.974;4.968;2023-09-19T08:51:17;6.77;;;2.30;;
9974;SDS011;5028;50.974;4.968;2023-09-19T08:53:50;6.03;;;2.30;;
9974;SDS011;5028;50.974;4.968;2023-09-19T08:56:19;8.37;;;2.47;;
9974;SDS011;5028;50.974;4.968;2023-09-19T08:58:55;8.80;;;2.70;;
9974;SDS011;5028;50.974;4.968;2023-09-19T09:01:29;12.17;;;2.73;;
9974;SDS011;5028;50.974;4.968;2023-09-19T09:04:00;7.27;;;2.63;;
9974;SDS011;5028;50.974;4.968;2023-09-19T09:06:31;7.03;;;2.30;;
9974;SDS011;5028;50.974;4.968;2023-09-19T09:09:00;11.27;;;2.87;;
9974;SDS011;5028;50.974;4.968;2023-09-19T09:11:30;8.00;;;2.43;;
9974;SDS011;5028;50.974;4.968;2023-09-19T09:14:02;7.53;;;2.30;;
9974;SDS011;5028;50.974;4.968;2023-09-19T09:16:31;9.43;;;2.70;;
9974;SDS011;5028;50.974;4.968;2023-09-19T09:19:02;8.70;;;2.47;;
9974;SDS011;5028;50.974;4.968;2023-09-19T09:21:31;11.80;;;2.63;;
9974;SDS011;5028;50.974;4.968;2023-09-19T09:27:00;6.83;;;2.27;;
9974;SDS011;5028;50.974;4.968;2023-09-19T09:29:47;8.63;;;2.73;;
9974;SDS011;5028;50.974;4.968;2023-09-19T09:32:16;7.40;;;2.03;;
9974;SDS011;5028;50.974;4.968;2023-09-19T09:34:51;6.17;;;2.67;;
9974;SDS011;5028;50.974;4.968;2023-09-19T09:37:25;9.27;;;2.70;;
9974;SDS011;5028;50.974;4.968;2023-09-19T09:39:57;9.47;;;2.33;;
9974;SDS011;5028;50.974;4.968;2023-09-19T09:42:46;8.53;;;2.73;;
9974;SDS011;5028;50.974;4.968;2023-09-19T09:45:18;6.33;;;2.23;;
9974;SDS011;5028;50.974;4.968;2023-09-19T09:47:55;8.13;;;2.73;;
9974;SDS011;5028;50.974;4.968;2023-09-19T09:50:24;6.87;;;2.30;;
9974;SDS011;5028;50.974;4.968;2023-09-19T09:52:56;8.53;;;2.47;;
9974;SDS011;5028;50.974;4.968;2023-09-19T09:58:27;8.43;;;2.33;;
9974;SDS011;5028;50.974;4.968;2023-09-19T10:01:00;7.53;;;2.27;;
9974;SDS011;5028;50.974;4.968;2023-09-19T10:03:36;6.37;;;2.00;;
9974;SDS011;5028;50.974;4.968;2023-09-19T10:06:12;6.13;;;2.00;;
9974;SDS011;5028;50.974;4.968;2023-09-19T10:08:58;9.00;;;2.80;;
9974;SDS011;5028;50.974;4.968;2023-09-19T10:11:41;7.13;;;2.30;;
9974;SDS011;5028;50.974;4.968;2023-09-19T10:14:13;5.93;;;2.20;;
9974;SDS011;5028;50.974;4.968;2023-09-19T10:16:48;7.23;;;2.30;;
9974;SDS011;5028;50.974;4.968;2023-09-19T10:19:20;5.57;;;2.20;;
9974;SDS011;5028;50.974;4.968;2023-09-19T10:21:53;7.43;;;2.37;;
9974;SDS011;5028;50.974;4.968;2023-09-19T10:24:24;5.80;;;2.30;;
9974;SDS011;5028;50.974;4.968;2023-09-19T10:26:55;6.70;;;1.87;;
9974;SDS011;5028;50.974;4.968;2023-09-19T10:29:24;8.10;;;2.30;;
9974;SDS011;5028;50.974;4.968;2023-09-19T10:31:59;6.30;;;1.97;;
9974;SDS011;5028;50.974;4.968;2023-09-19T10:34:30;9.83;;;2.37;;
9974;SDS011;5028;50.974;4.968;2023-09-19T10:37:02;5.73;;;1.93;;
9974;SDS011;5028;50.974;4.968;2023-09-19T10:39:32;4.90;;;1.80;;
9974;SDS011;5028;50.974;4.968;2023-09-19T10:42:02;7.47;;;2.23;;
9974;SDS011;5028;50.974;4.968;2023-09-19T10:44:32;4.83;;;1.87;;
9974;SDS011;5028;50.974;4.968;2023-09-19T10:47:03;9.40;;;2.33;;
9974;SDS011;5028;50.974;4.968;2023-09-19T10:49:34;4.87;;;1.53;;
9974;SDS011;5028;50.974;4.968;2023-09-19T10:52:03;5.53;;;1.70;;
9974;SDS011;5028;50.974;4.968;2023-09-19T10:54:37;6.93;;;2.20;;
9974;SDS011;5028;50.974;4.968;2023-09-19T10:57:12;7.00;;;2.07;;
9974;SDS011;5028;50.974;4.968;2023-09-19T11:06:01;3.87;;;1.77;;
9974;SDS011;5028;50.974;4.968;2023-09-19T11:11:43;4.90;;;1.70;;
9974;SDS011;5028;50.974;4.968;2023-09-19T11:14:39;5.73;;;1.90;;
9974;SDS011;5028;50.974;4.968;2023-09-19T11:17:30;3.93;;;1.50;;
9974;SDS011;5028;50.974;4.968;2023-09-19T11:23:18;5.17;;;1.60;;
9974;SDS011;5028;50.974;4.968;2023-09-19T11:25:53;3.70;;;1.30;;
9974;SDS011;5028;50.974;4.968;2023-09-19T11:28:32;4.47;;;1.40;;
9974;SDS011;5028;50.974;4.968;2023-09-19T11:40:35;4.37;;;1.53;;
9974;SDS011;5028;50.974;4.968;2023-09-19T11:46:07;2.87;;;1.10;;
9974;SDS011;5028;50.974;4.968;2023-09-19T11:48:38;3.93;;;1.40;;
9974;SDS011;5028;50.974;4.968;2023-09-19T11:51:11;2.50;;;1.03;;
9974;SDS011;5028;50.974;4.968;2023-09-19T11:53:50;4.03;;;1.43;;
9974;SDS011;5028;50.974;4.968;2023-09-19T11:56:21;3.77;;;1.17;;
9974;SDS011;5028;50.974;4.968;2023-09-19T11:58:53;4.40;;;1.23;;
9974;SDS011;5028;50.974;4.968;2023-09-19T12:01:24;5.10;;;1.40;;
9974;SDS011;5028;50.974;4.968;2023-09-19T12:03:59;3.70;;;1.30;;
9974;SDS011;5028;50.974;4.968;2023-09-19T12:06:29;3.53;;;1.20;;
9974;SDS011;5028;50.974;4.968;2023-09-19T12:08:59;4.20;;;1.33;;
9974;SDS011;5028;50.974;4.968;2023-09-19T12:11:31;2.30;;;1.07;;
9974;SDS011;5028;50.974;4.968;2023-09-19T12:14:02;2.63;;;1.13;;
9974;SDS011;5028;50.974;4.968;2023-09-19T12:16:31;5.27;;;1.10;;
9974;SDS011;5028;50.974;4.968;2023-09-19T12:21:58;3.70;;;1.47;;
9974;SDS011;5028;50.974;4.968;2023-09-19T12:24:32;3.07;;;1.20;;
9974;SDS011;5028;50.974;4.968;2023-09-19T12:27:06;2.53;;;1.03;;
9974;SDS011;5028;50.974;4.968;2023-09-19T12:29:42;4.53;;;1.50;;
9974;SDS011;5028;50.974;4.968;2023-09-19T12:32:11;5.53;;;1.20;;
9974;SDS011;5028;50.974;4.968;2023-09-19T12:34:49;3.47;;;1.00;;
9974;SDS011;5028;50.974;4.968;2023-09-19T12:37:21;4.13;;;1.33;;
9974;SDS011;5028;50.974;4.968;2023-09-19T12:40:03;2.77;;;1.27;;
9974;SDS011;5028;50.974;4.968;2023-09-19T12:42:44;5.13;;;1.40;;
9974;SDS011;5028;50.974;4.968;2023-09-19T12:45:14;2.57;;;1.13;;
9974;SDS011;5028;50.974;4.968;2023-09-19T12:51:00;5.37;;;1.30;;
9974;SDS011;5028;50.974;4.968;2023-09-19T12:53:35;4.50;;;1.47;;
9974;SDS011;5028;50.974;4.968;2023-09-19T12:56:08;6.57;;;1.17;;
9974;SDS011;5028;50.974;4.968;2023-09-19T12:58:53;5.77;;;1.40;;
9974;SDS011;5028;50.974;4.968;2023-09-19T13:01:23;2.90;;;1.30;;
9974;SDS011;5028;50.974;4.968;2023-09-19T13:04:10;3.27;;;1.07;;
9974;SDS011;5028;50.974;4.968;2023-09-19T13:06:41;1.47;;;0.97;;
9974;SDS011;5028;50.974;4.968;2023-09-19T13:09:11;4.47;;;1.23;;
9974;SDS011;5028;50.974;4.968;2023-09-19T13:11:41;3.43;;;1.20;;
9974;SDS011;5028;50.974;4.968;2023-09-19T13:14:16;3.13;;;1.03;;
9974;SDS011;5028;50.974;4.968;2023-09-19T13:16:55;6.10;;;1.30;;
9974;SDS011;5028;50.974;4.968;2023-09-19T13:19:34;3.27;;;1.10;;
9974;SDS011;5028;50.974;4.968;2023-09-19T13:25:13;3.63;;;1.10;;
9974;SDS011;5028;50.974;4.968;2023-09-19T13:27:46;3.87;;;1.30;;
9974;SDS011;5028;50.974;4.968;2023-09-19T13:30:19;3.57;;;1.30;;
9974;SDS011;5028;50.974;4.968;2023-09-19T13:32:49;3.43;;;1.20;;
9974;SDS011;5028;50.974;4.968;2023-09-19T13:35:19;4.87;;;1.20;;
9974;SDS011;5028;50.974;4.968;2023-09-19T13:37:48;4.63;;;1.27;;
9974;SDS011;5028;50.974;4.968;2023-09-19T13:40:18;2.20;;;1.10;;
9974;SDS011;5028;50.974;4.968;2023-09-19T13:42:47;4.00;;;1.20;;
9974;SDS011;5028;50.974;4.968;2023-09-19T13:45:16;5.43;;;1.13;;
9974;SDS011;5028;50.974;4.968;2023-09-19T13:47:50;3.40;;;1.10;;
9974;SDS011;5028;50.974;4.968;2023-09-19T13:50:19;4.10;;;1.10;;
9974;SDS011;5028;50.974;4.968;2023-09-19T13:52:50;5.50;;;1.30;;
9974;SDS011;5028;50.974;4.968;2023-09-19T13:55:19;6.47;;;1.43;;
9974;SDS011;5028;50.974;4.968;2023-09-19T13:57:48;3.47;;;1.10;;
9974;SDS011;5028;50.974;4.968;2023-09-19T14:00:21;2.47;;;1.10;;
9974;SDS011;5028;50.974;4.968;2023-09-19T14:02:52;3.90;;;1.10;;
9974;SDS011;5028;50.974;4.968;2023-09-19T14:05:21;3.10;;;1.27;;
9974;SDS011;5028;50.974;4.968;2023-09-19T14:07:49;3.57;;;1.17;;
9974;SDS011;5028;50.974;4.968;2023-09-19T14:10:18;5.17;;;1.20;;
9974;SDS011;5028;50.974;4.968;2023-09-19T14:12:47;5.03;;;1.37;;
9974;SDS011;5028;50.974;4.968;2023-09-19T14:15:16;3.27;;;1.13;;
9974;SDS011;5028;50.974;4.968;2023-09-19T14:17:45;3.13;;;1.13;;
9974;SDS011;5028;50.974;4.968;2023-09-19T14:20:15;2.93;;;1.10;;
9974;SDS011;5028;50.974;4.968;2023-09-19T14:22:44;4.00;;;1.30;;
9974;SDS011;5028;50.974;4.968;2023-09-19T14:25:13;4.13;;;1.40;;
9974;SDS011;5028;50.974;4.968;2023-09-19T14:27:42;3.27;;;1.30;;
9974;SDS011;5028;50.974;4.968;2023-09-19T14:30:11;4.27;;;1.50;;
9974;SDS011;5028;50.974;4.968;2023-09-19T14:32:40;3.37;;;1.17;;
9974;SDS011;5028;50.974;4.968;2023-09-19T14:35:09;3.90;;;1.13;;
9974;SDS011;5028;50.974;4.968;2023-09-19T14:37:42;4.50;;;1.20;;
9974;SDS011;5028;50.974;4.968;2023-09-19T14:40:12;3.83;;;1.13;;
9974;SDS011;5028;50.974;4.968;2023-09-19T14:42:43;3.40;;;1.30;;
9974;SDS011;5028;50.974;4.968;2023-09-19T14:45:15;4.43;;;1.40;;
9974;SDS011;5028;50.974;4.968;2023-09-19T14:47:45;3.03;;;1.00;;
9974;SDS011;5028;50.974;4.968;2023-09-19T14:50:15;2.53;;;1.20;;
9974;SDS011;5028;50.974;4.968;2023-09-19T14:52:46;2.60;;;1.10;;
9974;SDS011;5028;50.974;4.968;2023-09-19T14:55:16;6.53;;;1.47;;
9974;SDS011;5028;50.974;4.968;2023-09-19T14:57:48;3.13;;;1.40;;
9974;SDS011;5028;50.974;4.968;2023-09-19T15:00:17;4.23;;;1.27;;
9974;SDS011;5028;50.974;4.968;2023-09-19T15:02:48;3.90;;;1.40;;
9974;SDS011;5028;50.974;4.968;2023-09-19T15:05:17;2.03;;;1.10;;
9974;SDS011;5028;50.974;4.968;2023-09-19T15:07:48;2.97;;;1.30;;
9974;SDS011;5028;50.974;4.968;2023-09-19T15:10:18;5.23;;;1.27;;
9974;SDS011;5028;50.974;4.968;2023-09-19T15:12:46;2.60;;;1.20;;
9974;SDS011;5028;50.974;4.968;2023-09-19T15:15:15;2.60;;;1.10;;
9974;SDS011;5028;50.974;4.968;2023-09-19T15:17:44;2.60;;;1.40;;
9974;SDS011;5028;50.974;4.968;2023-09-19T15:20:13;7.33;;;1.60;;
9974;SDS011;5028;50.974;4.968;2023-09-19T15:22:44;4.63;;;1.50;;
9974;SDS011;5028;50.974;4.968;2023-09-19T15:25:15;3.20;;;1.50;;
9974;SDS011;5028;50.974;4.968;2023-09-19T15:27:43;3.80;;;1.60;;
9974;SDS011;5028;50.974;4.968;2023-09-19T15:30:13;4.27;;;1.80;;
9974;SDS011;5028;50.974;4.968;2023-09-19T15:32:42;4.07;;;1.40;;
9974;SDS011;5028;50.974;4.968;2023-09-19T15:35:11;3.33;;;1.70;;
9974;SDS011;5028;50.974;4.968;2023-09-19T15:37:40;3.63;;;1.70;;
9974;SDS011;5028;50.974;4.968;2023-09-19T15:40:09;3.17;;;1.60;;
9974;SDS011;5028;50.974;4.968;2023-09-19T15:42:42;3.07;;;1.60;;
9974;SDS011;5028;50.974;4.968;2023-09-19T15:45:10;4.50;;;1.77;;
9974;SDS011;5028;50.974;4.968;2023-09-19T15:47:39;3.40;;;1.73;;
9974;SDS011;5028;50.974;4.968;2023-09-19T15:50:10;4.97;;;1.77;;
9974;SDS011;5028;50.974;4.968;2023-09-19T15:52:40;5.00;;;1.97;;
9974;SDS011;5028;50.974;4.968;2023-09-19T15:55:09;3.97;;;1.80;;
9974;SDS011;5028;50.974;4.968;2023-09-19T15:57:38;4.93;;;1.73;;
9974;SDS011;5028;50.974;4.968;2023-09-19T16:00:09;5.33;;;1.70;;
9974;SDS011;5028;50.974;4.968;2023-09-19T16:02:45;3.10;;;1.50;;
9974;SDS011;5028;50.974;4.968;2023-09-19T16:05:17;2.50;;;1.50;;
9974;SDS011;5028;50.974;4.968;2023-09-19T16:07:46;2.43;;;1.43;;
9974;SDS011;5028;50.974;4.968;2023-09-19T16:10:14;4.40;;;1.67;;
9974;SDS011;5028;50.974;4.968;2023-09-19T16:12:43;5.87;;;2.10;;
9974;SDS011;5028;50.974;4.968;2023-09-19T16:15:14;3.67;;;1.63;;
9974;SDS011;5028;50.974;4.968;2023-09-19T16:17:43;3.23;;;1.70;;
9974;SDS011;5028;50.974;4.968;2023-09-19T16:20:12;5.03;;;1.50;;
9974;SDS011;5028;50.974;4.968;2023-09-19T16:22:45;3.70;;;1.60;;